sensor_id;sensor_type;location;lat;lon;timestamp;P1;durP1;ratioP1;P2;durP2;ratioP2
55732;SDS011;41637;52.364;9.910;2023-08-01T00:00:16;5.70;;;1.50;;
55732;SDS011;41637;52.364;9.910;2023-08-01T00:02:45;3.20;;;1.30;;
55732;SDS011;41637;52.364;9.910;2023-08-01T00:05:13;4.70;;;1.50;;
55732;SDS011;41637;52.364;9.910;2023-08-01T00:07:40;3.60;;;1.50;;
55732;SDS011;41637;52.364;9.910;2023-08-01T00:10:07;3.30;;;1.50;;
55732;SDS011;41637;52.364;9.910;2023-08-01T00:12:34;3.80;;;1.40;;
55732;SDS011;41637;52.364;9.910;2023-08-01T00:15:01;2.60;;;1.50;;
55732;SDS011;41637;52.364;9.910;2023-08-01T00:17:29;2.50;;;1.50;;
55732;SDS011;41637;52.364;9.910;2023-08-01T00:19:56;2.50;;;1.40;;
55732;SDS011;41637;52.364;9.910;2023-08-01T00:22:23;2.80;;;1.30;;
55732;SDS011;41637;52.364;9.910;2023-08-01T00:24:49;4.20;;;1.40;;
55732;SDS011;41637;52.364;9.910;2023-08-01T00:27:16;4.00;;;1.50;;
55732;SDS011;41637;52.364;9.910;2023-08-01T00:29:44;3.70;;;1.50;;
55732;SDS011;41637;52.364;9.910;2023-08-01T00:32:11;2.60;;;1.40;;
55732;SDS011;41637;52.364;9.910;2023-08-01T00:34:38;3.70;;;1.70;;
55732;SDS011;41637;52.364;9.910;2023-08-01T00:37:05;2.70;;;1.40;;
55732;SDS011;41637;52.364;9.910;2023-08-01T00:39:32;4.60;;;1.50;;
55732;SDS011;41637;52.364;9.910;2023-08-01T00:41:59;2.90;;;1.40;;
55732;SDS011;41637;52.364;9.910;2023-08-01T00:44:26;3.90;;;1.40;;
55732;SDS011;41637;52.364;9.910;2023-08-01T00:46:52;3.40;;;1.50;;
55732;SDS011;41637;52.364;9.910;2023-08-01T00:49:19;2.20;;;1.30;;
55732;SDS011;41637;52.364;9.910;2023-08-01T00:51:46;2.60;;;1.30;;
55732;SDS011;41637;52.364;9.910;2023-08-01T00:54:14;3.80;;;1.60;;
55732;SDS011;41637;52.364;9.910;2023-08-01T00:56:41;4.70;;;1.50;;
55732;SDS011;41637;52.364;9.910;2023-08-01T00:59:08;2.90;;;1.40;;
55732;SDS011;41637;52.364;9.910;2023-08-01T01:01:35;3.00;;;1.60;;
55732;SDS011;41637;52.364;9.910;2023-08-01T01:04:02;3.80;;;1.40;;
55732;SDS011;41637;52.364;9.910;2023-08-01T01:06:34;3.00;;;1.40;;
55732;SDS011;41637;52.364;9.910;2023-08-01T01:09:14;3.30;;;1.50;;
55732;SDS011;41637;52.364;9.910;2023-08-01T01:11:45;2.80;;;1.40;;
55732;SDS011;41637;52.364;9.910;2023-08-01T01:14:13;2.70;;;1.40;;
55732;SDS011;41637;52.364;9.910;2023-08-01T01:16:40;3.90;;;1.40;;
55732;SDS011;41637;52.364;9.910;2023-08-01T01:19:07;4.40;;;1.40;;
55732;SDS011;41637;52.364;9.910;2023-08-01T01:21:35;3.80;;;1.30;;
55732;SDS011;41637;52.364;9.910;2023-08-01T01:24:05;3.60;;;1.30;;
55732;SDS011;41637;52.364;9.910;2023-08-01T01:26:35;2.40;;;1.30;;
55732;SDS011;41637;52.364;9.910;2023-08-01T01:29:04;4.20;;;1.40;;
55732;SDS011;41637;52.364;9.910;2023-08-01T01:31:32;3.00;;;1.40;;
55732;SDS011;41637;52.364;9.910;2023-08-01T01:34:00;6.50;;;1.40;;
55732;SDS011;41637;52.364;9.910;2023-08-01T01:36:28;4.20;;;1.40;;
55732;SDS011;41637;52.364;9.910;2023-08-01T01:38:55;4.00;;;1.30;;
55732;SDS011;41637;52.364;9.910;2023-08-01T01:41:22;2.50;;;1.10;;
55732;SDS011;41637;52.364;9.910;2023-08-01T01:43:49;4.20;;;1.20;;
55732;SDS011;41637;52.364;9.910;2023-08-01T01:46:16;2.50;;;1.20;;
55732;SDS011;41637;52.364;9.910;2023-08-01T01:48:43;3.40;;;1.20;;
55732;SDS011;41637;52.364;9.910;2023-08-01T01:51:10;4.20;;;1.10;;
55732;SDS011;41637;52.364;9.910;2023-08-01T01:53:37;5.00;;;1.20;;
55732;SDS011;41637;52.364;9.910;2023-08-01T01:56:03;4.40;;;1.20;;
55732;SDS011;41637;52.364;9.910;2023-08-01T01:58:30;4.40;;;1.20;;
55732;SDS011;41637;52.364;9.910;2023-08-01T02:00:57;3.60;;;1.10;;
55732;SDS011;41637;52.364;9.910;2023-08-01T02:03:24;1.70;;;1.00;;
55732;SDS011;41637;52.364;9.910;2023-08-01T02:05:51;2.70;;;1.10;;
55732;SDS011;41637;52.364;9.910;2023-08-01T02:08:18;3.30;;;0.90;;
55732;SDS011;41637;52.364;9.910;2023-08-01T02:10:45;2.40;;;0.80;;
55732;SDS011;41637;52.364;9.910;2023-08-01T02:13:12;3.20;;;1.10;;
55732;SDS011;41637;52.364;9.910;2023-08-01T02:15:39;3.20;;;0.90;;
55732;SDS011;41637;52.364;9.910;2023-08-01T02:18:05;2.00;;;0.80;;
55732;SDS011;41637;52.364;9.910;2023-08-01T02:20:33;3.60;;;1.00;;
55732;SDS011;41637;52.364;9.910;2023-08-01T02:22:59;3.70;;;0.80;;
55732;SDS011;41637;52.364;9.910;2023-08-01T02:25:26;1.70;;;0.70;;
55732;SDS011;41637;52.364;9.910;2023-08-01T02:27:53;1.40;;;0.60;;
55732;SDS011;41637;52.364;9.910;2023-08-01T02:30:19;2.30;;;0.90;;
55732;SDS011;41637;52.364;9.910;2023-08-01T02:32:46;4.50;;;0.80;;
55732;SDS011;41637;52.364;9.910;2023-08-01T02:35:14;2.40;;;0.70;;
55732;SDS011;41637;52.364;9.910;2023-08-01T02:37:40;2.40;;;0.90;;
55732;SDS011;41637;52.364;9.910;2023-08-01T02:40:08;2.70;;;0.60;;
55732;SDS011;41637;52.364;9.910;2023-08-01T02:42:35;3.10;;;0.70;;
55732;SDS011;41637;52.364;9.910;2023-08-01T02:45:02;2.20;;;0.70;;
55732;SDS011;41637;52.364;9.910;2023-08-01T02:47:29;2.10;;;0.50;;
55732;SDS011;41637;52.364;9.910;2023-08-01T02:49:56;2.40;;;0.60;;
55732;SDS011;41637;52.364;9.910;2023-08-01T02:52:23;1.90;;;0.50;;
55732;SDS011;41637;52.364;9.910;2023-08-01T02:54:50;1.80;;;0.60;;
55732;SDS011;41637;52.364;9.910;2023-08-01T02:57:16;1.40;;;0.40;;
55732;SDS011;41637;52.364;9.910;2023-08-01T02:59:43;3.60;;;0.60;;
55732;SDS011;41637;52.364;9.910;2023-08-01T03:02:10;2.50;;;0.60;;
55732;SDS011;41637;52.364;9.910;2023-08-01T03:04:37;3.50;;;0.80;;
55732;SDS011;41637;52.364;9.910;2023-08-01T03:07:12;1.10;;;0.50;;
55732;SDS011;41637;52.364;9.910;2023-08-01T03:09:39;2.70;;;0.50;;
55732;SDS011;41637;52.364;9.910;2023-08-01T03:12:06;2.40;;;0.60;;
55732;SDS011;41637;52.364;9.910;2023-08-01T03:14:33;3.20;;;0.60;;
55732;SDS011;41637;52.364;9.910;2023-08-01T03:17:00;1.40;;;0.40;;
55732;SDS011;41637;52.364;9.910;2023-08-01T03:19:27;1.70;;;0.40;;
55732;SDS011;41637;52.364;9.910;2023-08-01T03:21:54;2.50;;;0.50;;
55732;SDS011;41637;52.364;9.910;2023-08-01T03:24:22;2.00;;;0.50;;
55732;SDS011;41637;52.364;9.910;2023-08-01T03:26:49;2.80;;;0.50;;
55732;SDS011;41637;52.364;9.910;2023-08-01T03:29:15;3.30;;;0.40;;
55732;SDS011;41637;52.364;9.910;2023-08-01T03:31:42;2.70;;;0.60;;
55732;SDS011;41637;52.364;9.910;2023-08-01T03:34:09;2.90;;;0.60;;
55732;SDS011;41637;52.364;9.910;2023-08-01T03:36:36;0.80;;;0.30;;
55732;SDS011;41637;52.364;9.910;2023-08-01T03:39:03;1.80;;;0.40;;
55732;SDS011;41637;52.364;9.910;2023-08-01T03:41:31;2.20;;;0.40;;
55732;SDS011;41637;52.364;9.910;2023-08-01T03:43:59;1.30;;;0.40;;
55732;SDS011;41637;52.364;9.910;2023-08-01T03:46:26;1.60;;;0.30;;
55732;SDS011;41637;52.364;9.910;2023-08-01T03:48:54;1.10;;;0.40;;
55732;SDS011;41637;52.364;9.910;2023-08-01T03:51:21;1.60;;;0.40;;
55732;SDS011;41637;52.364;9.910;2023-08-01T03:53:47;1.10;;;0.50;;
55732;SDS011;41637;52.364;9.910;2023-08-01T03:56:32;1.70;;;0.50;;
55732;SDS011;41637;52.364;9.910;2023-08-01T03:59:00;2.70;;;0.50;;
55732;SDS011;41637;52.364;9.910;2023-08-01T04:01:26;2.70;;;0.40;;
55732;SDS011;41637;52.364;9.910;2023-08-01T04:03:53;2.80;;;0.50;;
55732;SDS011;41637;52.364;9.910;2023-08-01T04:06:20;1.50;;;0.50;;
55732;SDS011;41637;52.364;9.910;2023-08-01T04:08:47;2.00;;;0.50;;
55732;SDS011;41637;52.364;9.910;2023-08-01T04:11:14;2.30;;;0.50;;
55732;SDS011;41637;52.364;9.910;2023-08-01T04:13:41;3.20;;;0.50;;
55732;SDS011;41637;52.364;9.910;2023-08-01T04:16:07;1.00;;;0.40;;
55732;SDS011;41637;52.364;9.910;2023-08-01T04:18:34;2.50;;;0.50;;
55732;SDS011;41637;52.364;9.910;2023-08-01T04:21:01;1.40;;;0.40;;
55732;SDS011;41637;52.364;9.910;2023-08-01T04:23:28;1.30;;;0.40;;
55732;SDS011;41637;52.364;9.910;2023-08-01T04:25:55;2.00;;;0.40;;
55732;SDS011;41637;52.364;9.910;2023-08-01T04:28:22;2.90;;;0.40;;
55732;SDS011;41637;52.364;9.910;2023-08-01T04:30:49;1.40;;;0.40;;
55732;SDS011;41637;52.364;9.910;2023-08-01T04:33:17;0.80;;;0.40;;
55732;SDS011;41637;52.364;9.910;2023-08-01T04:35:44;2.20;;;0.50;;
55732;SDS011;41637;52.364;9.910;2023-08-01T04:38:14;2.90;;;1.00;;
55732;SDS011;41637;52.364;9.910;2023-08-01T04:40:42;4.00;;;1.60;;
55732;SDS011;41637;52.364;9.910;2023-08-01T04:43:09;3.20;;;1.10;;
55732;SDS011;41637;52.364;9.910;2023-08-01T04:45:38;1.50;;;0.70;;
55732;SDS011;41637;52.364;9.910;2023-08-01T04:48:05;2.10;;;0.70;;
55732;SDS011;41637;52.364;9.910;2023-08-01T04:50:32;2.00;;;0.70;;
55732;SDS011;41637;52.364;9.910;2023-08-01T04:52:59;2.10;;;0.70;;
55732;SDS011;41637;52.364;9.910;2023-08-01T04:55:25;2.70;;;0.60;;
55732;SDS011;41637;52.364;9.910;2023-08-01T04:57:52;1.40;;;0.60;;
55732;SDS011;41637;52.364;9.910;2023-08-01T05:00:19;2.70;;;0.60;;
55732;SDS011;41637;52.364;9.910;2023-08-01T05:02:46;1.40;;;0.50;;
55732;SDS011;41637;52.364;9.910;2023-08-01T05:05:13;3.10;;;0.60;;
55732;SDS011;41637;52.364;9.910;2023-08-01T05:07:42;1.90;;;0.70;;
55732;SDS011;41637;52.364;9.910;2023-08-01T05:10:09;2.40;;;0.80;;
55732;SDS011;41637;52.364;9.910;2023-08-01T05:12:36;2.60;;;0.70;;
55732;SDS011;41637;52.364;9.910;2023-08-01T05:15:03;1.80;;;0.70;;
55732;SDS011;41637;52.364;9.910;2023-08-01T05:17:30;2.80;;;0.70;;
55732;SDS011;41637;52.364;9.910;2023-08-01T05:19:57;1.70;;;0.70;;
55732;SDS011;41637;52.364;9.910;2023-08-01T05:22:24;1.80;;;0.80;;
55732;SDS011;41637;52.364;9.910;2023-08-01T05:24:51;2.40;;;0.90;;
55732;SDS011;41637;52.364;9.910;2023-08-01T05:27:18;3.10;;;0.70;;
55732;SDS011;41637;52.364;9.910;2023-08-01T05:29:44;2.30;;;0.90;;
55732;SDS011;41637;52.364;9.910;2023-08-01T05:32:11;4.60;;;0.80;;
55732;SDS011;41637;52.364;9.910;2023-08-01T05:34:38;2.70;;;0.90;;
55732;SDS011;41637;52.364;9.910;2023-08-01T05:37:05;2.70;;;0.90;;
55732;SDS011;41637;52.364;9.910;2023-08-01T05:39:32;1.50;;;0.70;;
55732;SDS011;41637;52.364;9.910;2023-08-01T05:41:59;4.80;;;0.90;;
55732;SDS011;41637;52.364;9.910;2023-08-01T05:44:26;1.50;;;0.80;;
55732;SDS011;41637;52.364;9.910;2023-08-01T05:46:52;1.90;;;0.80;;
55732;SDS011;41637;52.364;9.910;2023-08-01T05:49:19;2.60;;;0.90;;
55732;SDS011;41637;52.364;9.910;2023-08-01T05:51:46;2.00;;;0.90;;
55732;SDS011;41637;52.364;9.910;2023-08-01T05:54:13;3.10;;;0.90;;
55732;SDS011;41637;52.364;9.910;2023-08-01T05:56:40;2.50;;;0.90;;
55732;SDS011;41637;52.364;9.910;2023-08-01T05:59:07;2.30;;;0.90;;
55732;SDS011;41637;52.364;9.910;2023-08-01T06:01:35;3.00;;;1.00;;
55732;SDS011;41637;52.364;9.910;2023-08-01T06:04:02;2.30;;;0.90;;
55732;SDS011;41637;52.364;9.910;2023-08-01T06:06:29;2.90;;;1.20;;
55732;SDS011;41637;52.364;9.910;2023-08-01T06:08:56;1.90;;;0.80;;
55732;SDS011;41637;52.364;9.910;2023-08-01T06:11:22;2.70;;;0.90;;
55732;SDS011;41637;52.364;9.910;2023-08-01T06:13:49;3.60;;;1.10;;
55732;SDS011;41637;52.364;9.910;2023-08-01T06:16:16;2.40;;;1.10;;
55732;SDS011;41637;52.364;9.910;2023-08-01T06:18:43;2.70;;;1.00;;
55732;SDS011;41637;52.364;9.910;2023-08-01T06:21:09;3.20;;;0.90;;
55732;SDS011;41637;52.364;9.910;2023-08-01T06:23:36;3.00;;;1.30;;
55732;SDS011;41637;52.364;9.910;2023-08-01T06:26:03;2.70;;;1.50;;
55732;SDS011;41637;52.364;9.910;2023-08-01T06:28:29;2.40;;;1.40;;
55732;SDS011;41637;52.364;9.910;2023-08-01T06:30:57;3.50;;;1.80;;
55732;SDS011;41637;52.364;9.910;2023-08-01T06:33:24;2.70;;;1.90;;
55732;SDS011;41637;52.364;9.910;2023-08-01T06:35:50;4.30;;;2.00;;
55732;SDS011;41637;52.364;9.910;2023-08-01T06:38:17;3.30;;;2.10;;
55732;SDS011;41637;52.364;9.910;2023-08-01T06:40:44;2.70;;;2.00;;
55732;SDS011;41637;52.364;9.910;2023-08-01T06:43:11;4.40;;;2.20;;
55732;SDS011;41637;52.364;9.910;2023-08-01T06:45:37;4.40;;;2.10;;
55732;SDS011;41637;52.364;9.910;2023-08-01T06:48:04;3.70;;;2.50;;
55732;SDS011;41637;52.364;9.910;2023-08-01T06:50:31;4.90;;;2.60;;
55732;SDS011;41637;52.364;9.910;2023-08-01T06:52:57;6.20;;;2.60;;
55732;SDS011;41637;52.364;9.910;2023-08-01T06:55:24;5.20;;;2.70;;
55732;SDS011;41637;52.364;9.910;2023-08-01T06:57:50;5.00;;;2.80;;
55732;SDS011;41637;52.364;9.910;2023-08-01T07:00:17;3.70;;;2.60;;
55732;SDS011;41637;52.364;9.910;2023-08-01T07:02:44;5.40;;;2.70;;
55732;SDS011;41637;52.364;9.910;2023-08-01T07:05:11;7.00;;;3.10;;
55732;SDS011;41637;52.364;9.910;2023-08-01T07:07:37;4.70;;;3.20;;
55732;SDS011;41637;52.364;9.910;2023-08-01T07:10:04;6.60;;;3.30;;
55732;SDS011;41637;52.364;9.910;2023-08-01T07:12:32;4.60;;;2.70;;
55732;SDS011;41637;52.364;9.910;2023-08-01T07:14:58;4.20;;;2.80;;
55732;SDS011;41637;52.364;9.910;2023-08-01T07:17:28;4.60;;;3.10;;
55732;SDS011;41637;52.364;9.910;2023-08-01T07:19:55;7.00;;;3.30;;
55732;SDS011;41637;52.364;9.910;2023-08-01T07:22:21;7.10;;;3.20;;
55732;SDS011;41637;52.364;9.910;2023-08-01T07:24:52;7.70;;;3.60;;
55732;SDS011;41637;52.364;9.910;2023-08-01T07:27:20;6.20;;;3.70;;
55732;SDS011;41637;52.364;9.910;2023-08-01T07:29:47;8.30;;;3.90;;
55732;SDS011;41637;52.364;9.910;2023-08-01T07:32:14;8.10;;;4.00;;
55732;SDS011;41637;52.364;9.910;2023-08-01T07:34:41;5.70;;;3.60;;
55732;SDS011;41637;52.364;9.910;2023-08-01T07:37:08;7.20;;;3.70;;
55732;SDS011;41637;52.364;9.910;2023-08-01T07:39:34;8.00;;;4.00;;
55732;SDS011;41637;52.364;9.910;2023-08-01T07:42:01;5.10;;;3.60;;
55732;SDS011;41637;52.364;9.910;2023-08-01T07:44:30;7.10;;;3.90;;
55732;SDS011;41637;52.364;9.910;2023-08-01T07:46:57;5.90;;;3.70;;
55732;SDS011;41637;52.364;9.910;2023-08-01T07:49:24;7.80;;;3.80;;
55732;SDS011;41637;52.364;9.910;2023-08-01T07:51:51;7.70;;;4.00;;
55732;SDS011;41637;52.364;9.910;2023-08-01T07:54:17;6.80;;;4.00;;
55732;SDS011;41637;52.364;9.910;2023-08-01T07:56:44;9.50;;;4.70;;
55732;SDS011;41637;52.364;9.910;2023-08-01T07:59:14;7.40;;;4.40;;
55732;SDS011;41637;52.364;9.910;2023-08-01T08:01:41;7.70;;;4.20;;
55732;SDS011;41637;52.364;9.910;2023-08-01T08:04:08;7.10;;;4.10;;
55732;SDS011;41637;52.364;9.910;2023-08-01T08:06:35;8.60;;;4.30;;
55732;SDS011;41637;52.364;9.910;2023-08-01T08:09:02;6.40;;;3.90;;
55732;SDS011;41637;52.364;9.910;2023-08-01T08:11:29;7.90;;;4.20;;
55732;SDS011;41637;52.364;9.910;2023-08-01T08:13:56;8.00;;;4.30;;
55732;SDS011;41637;52.364;9.910;2023-08-01T08:16:22;7.10;;;4.00;;
55732;SDS011;41637;52.364;9.910;2023-08-01T08:18:49;8.90;;;4.00;;
55732;SDS011;41637;52.364;9.910;2023-08-01T08:21:16;5.80;;;3.90;;
55732;SDS011;41637;52.364;9.910;2023-08-01T08:23:46;7.70;;;4.00;;
55732;SDS011;41637;52.364;9.910;2023-08-01T08:26:12;6.70;;;3.20;;
55732;SDS011;41637;52.364;9.910;2023-08-01T08:28:39;7.00;;;3.40;;
55732;SDS011;41637;52.364;9.910;2023-08-01T08:31:08;6.00;;;3.00;;
55732;SDS011;41637;52.364;9.910;2023-08-01T08:33:35;9.90;;;3.80;;
55732;SDS011;41637;52.364;9.910;2023-08-01T08:36:02;8.60;;;3.60;;
55732;SDS011;41637;52.364;9.910;2023-08-01T08:38:29;6.30;;;3.30;;
55732;SDS011;41637;52.364;9.910;2023-08-01T08:43:35;5.40;;;2.60;;
55732;SDS011;41637;52.364;9.910;2023-08-01T08:46:03;6.20;;;3.00;;
55732;SDS011;41637;52.364;9.910;2023-08-01T08:48:30;5.20;;;2.70;;
55732;SDS011;41637;52.364;9.910;2023-08-01T08:50:59;4.00;;;2.30;;
55732;SDS011;41637;52.364;9.910;2023-08-01T08:53:27;5.00;;;2.30;;
55732;SDS011;41637;52.364;9.910;2023-08-01T08:55:54;4.50;;;2.70;;
55732;SDS011;41637;52.364;9.910;2023-08-01T08:58:21;5.30;;;2.60;;
55732;SDS011;41637;52.364;9.910;2023-08-01T09:00:48;5.80;;;2.70;;
55732;SDS011;41637;52.364;9.910;2023-08-01T09:03:15;5.50;;;2.30;;
55732;SDS011;41637;52.364;9.910;2023-08-01T09:05:49;5.80;;;1.90;;
55732;SDS011;41637;52.364;9.910;2023-08-01T09:08:19;3.90;;;1.70;;
55732;SDS011;41637;52.364;9.910;2023-08-01T09:10:47;5.10;;;2.00;;
55732;SDS011;41637;52.364;9.910;2023-08-01T09:13:14;3.40;;;1.60;;
55732;SDS011;41637;52.364;9.910;2023-08-01T09:15:41;4.20;;;1.70;;
55732;SDS011;41637;52.364;9.910;2023-08-01T09:18:11;4.20;;;1.60;;
55732;SDS011;41637;52.364;9.910;2023-08-01T09:20:47;3.80;;;1.80;;
55732;SDS011;41637;52.364;9.910;2023-08-01T09:23:16;4.20;;;1.90;;
55732;SDS011;41637;52.364;9.910;2023-08-01T09:25:43;3.80;;;1.90;;
55732;SDS011;41637;52.364;9.910;2023-08-01T09:28:17;3.70;;;1.80;;
55732;SDS011;41637;52.364;9.910;2023-08-01T09:30:49;3.50;;;1.90;;
55732;SDS011;41637;52.364;9.910;2023-08-01T09:33:24;5.40;;;2.00;;
55732;SDS011;41637;52.364;9.910;2023-08-01T09:35:51;4.20;;;2.10;;
55732;SDS011;41637;52.364;9.910;2023-08-01T09:38:19;3.60;;;1.60;;
55732;SDS011;41637;52.364;9.910;2023-08-01T09:40:46;3.90;;;1.70;;
55732;SDS011;41637;52.364;9.910;2023-08-01T09:43:13;4.00;;;1.60;;
55732;SDS011;41637;52.364;9.910;2023-08-01T09:45:53;3.00;;;1.50;;
55732;SDS011;41637;52.364;9.910;2023-08-01T09:48:24;3.70;;;1.50;;
55732;SDS011;41637;52.364;9.910;2023-08-01T09:51:03;3.80;;;1.50;;
55732;SDS011;41637;52.364;9.910;2023-08-01T09:53:47;3.00;;;1.80;;
55732;SDS011;41637;52.364;9.910;2023-08-01T09:56:25;3.40;;;1.50;;
55732;SDS011;41637;52.364;9.910;2023-08-01T09:58:54;2.60;;;1.40;;
55732;SDS011;41637;52.364;9.910;2023-08-01T10:01:22;3.10;;;1.40;;
55732;SDS011;41637;52.364;9.910;2023-08-01T10:03:51;3.10;;;1.40;;
55732;SDS011;41637;52.364;9.910;2023-08-01T10:06:20;5.20;;;1.40;;
55732;SDS011;41637;52.364;9.910;2023-08-01T10:08:49;2.90;;;1.30;;
55732;SDS011;41637;52.364;9.910;2023-08-01T10:11:18;3.10;;;1.40;;
55732;SDS011;41637;52.364;9.910;2023-08-01T10:13:46;2.80;;;1.30;;
55732;SDS011;41637;52.364;9.910;2023-08-01T10:16:13;2.40;;;1.20;;
55732;SDS011;41637;52.364;9.910;2023-08-01T10:18:42;4.90;;;1.30;;
55732;SDS011;41637;52.364;9.910;2023-08-01T10:21:11;3.50;;;1.50;;
55732;SDS011;41637;52.364;9.910;2023-08-01T10:23:40;3.90;;;1.40;;
55732;SDS011;41637;52.364;9.910;2023-08-01T10:26:07;2.90;;;1.30;;
55732;SDS011;41637;52.364;9.910;2023-08-01T10:28:36;2.60;;;1.30;;
55732;SDS011;41637;52.364;9.910;2023-08-01T10:31:12;4.80;;;1.50;;
55732;SDS011;41637;52.364;9.910;2023-08-01T10:33:40;3.00;;;1.20;;
55732;SDS011;41637;52.364;9.910;2023-08-01T10:36:13;2.80;;;1.20;;
55732;SDS011;41637;52.364;9.910;2023-08-01T10:39:00;2.80;;;1.10;;
55732;SDS011;41637;52.364;9.910;2023-08-01T10:41:29;2.80;;;1.20;;
55732;SDS011;41637;52.364;9.910;2023-08-01T10:44:04;3.20;;;1.30;;
55732;SDS011;41637;52.364;9.910;2023-08-01T10:46:44;3.10;;;1.20;;
55732;SDS011;41637;52.364;9.910;2023-08-01T10:52:01;3.80;;;1.60;;
55732;SDS011;41637;52.364;9.910;2023-08-01T10:54:29;3.60;;;1.90;;
55732;SDS011;41637;52.364;9.910;2023-08-01T10:56:56;3.70;;;1.50;;
55732;SDS011;41637;52.364;9.910;2023-08-01T10:59:26;4.10;;;1.50;;
55732;SDS011;41637;52.364;9.910;2023-08-01T11:01:57;3.70;;;1.50;;
55732;SDS011;41637;52.364;9.910;2023-08-01T11:04:24;4.30;;;1.70;;
55732;SDS011;41637;52.364;9.910;2023-08-01T11:06:51;4.10;;;1.50;;
55732;SDS011;41637;52.364;9.910;2023-08-01T11:09:25;4.10;;;1.50;;
55732;SDS011;41637;52.364;9.910;2023-08-01T11:11:54;3.70;;;1.50;;
55732;SDS011;41637;52.364;9.910;2023-08-01T11:14:23;4.00;;;1.50;;
55732;SDS011;41637;52.364;9.910;2023-08-01T11:16:51;5.10;;;1.50;;
55732;SDS011;41637;52.364;9.910;2023-08-01T11:19:27;3.70;;;1.70;;
55732;SDS011;41637;52.364;9.910;2023-08-01T11:21:55;4.20;;;1.40;;
55732;SDS011;41637;52.364;9.910;2023-08-01T11:24:23;3.30;;;1.70;;
55732;SDS011;41637;52.364;9.910;2023-08-01T11:26:52;3.80;;;1.40;;
55732;SDS011;41637;52.364;9.910;2023-08-01T11:29:20;3.50;;;1.40;;
55732;SDS011;41637;52.364;9.910;2023-08-01T11:34:25;3.60;;;1.40;;
55732;SDS011;41637;52.364;9.910;2023-08-01T11:36:52;3.00;;;1.30;;
55732;SDS011;41637;52.364;9.910;2023-08-01T11:39:19;2.20;;;1.20;;
55732;SDS011;41637;52.364;9.910;2023-08-01T11:41:48;3.00;;;1.10;;
55732;SDS011;41637;52.364;9.910;2023-08-01T11:44:15;2.80;;;1.00;;
55732;SDS011;41637;52.364;9.910;2023-08-01T11:46:42;4.10;;;1.30;;
55732;SDS011;41637;52.364;9.910;2023-08-01T11:49:13;3.50;;;1.20;;
55732;SDS011;41637;52.364;9.910;2023-08-01T11:51:41;3.40;;;1.00;;
55732;SDS011;41637;52.364;9.910;2023-08-01T11:54:09;3.00;;;1.20;;
55732;SDS011;41637;52.364;9.910;2023-08-01T11:56:38;3.10;;;1.20;;
55732;SDS011;41637;52.364;9.910;2023-08-01T12:01:43;4.20;;;1.30;;
55732;SDS011;41637;52.364;9.910;2023-08-01T12:04:23;3.30;;;1.50;;
55732;SDS011;41637;52.364;9.910;2023-08-01T12:06:51;4.10;;;1.60;;
55732;SDS011;41637;52.364;9.910;2023-08-01T12:09:19;2.40;;;1.20;;
55732;SDS011;41637;52.364;9.910;2023-08-01T12:11:47;3.90;;;1.60;;
55732;SDS011;41637;52.364;9.910;2023-08-01T12:14:25;2.80;;;1.50;;
55732;SDS011;41637;52.364;9.910;2023-08-01T12:16:54;2.40;;;1.30;;
55732;SDS011;41637;52.364;9.910;2023-08-01T12:19:21;2.80;;;1.30;;
55732;SDS011;41637;52.364;9.910;2023-08-01T12:21:48;2.70;;;1.40;;
55732;SDS011;41637;52.364;9.910;2023-08-01T12:24:15;2.80;;;1.40;;
55732;SDS011;41637;52.364;9.910;2023-08-01T12:26:42;3.20;;;1.50;;
55732;SDS011;41637;52.364;9.910;2023-08-01T12:29:09;3.00;;;1.30;;
55732;SDS011;41637;52.364;9.910;2023-08-01T12:31:37;3.40;;;1.60;;
55732;SDS011;41637;52.364;9.910;2023-08-01T12:34:04;2.60;;;1.50;;
55732;SDS011;41637;52.364;9.910;2023-08-01T12:36:31;3.60;;;1.30;;
55732;SDS011;41637;52.364;9.910;2023-08-01T12:38:57;2.90;;;1.40;;
55732;SDS011;41637;52.364;9.910;2023-08-01T12:41:24;2.70;;;1.30;;
55732;SDS011;41637;52.364;9.910;2023-08-01T12:43:51;2.50;;;1.00;;
55732;SDS011;41637;52.364;9.910;2023-08-01T12:46:18;3.10;;;1.10;;
55732;SDS011;41637;52.364;9.910;2023-08-01T12:48:45;2.10;;;1.10;;
55732;SDS011;41637;52.364;9.910;2023-08-01T12:51:12;2.10;;;0.80;;
55732;SDS011;41637;52.364;9.910;2023-08-01T12:53:41;2.20;;;1.10;;
55732;SDS011;41637;52.364;9.910;2023-08-01T12:56:08;2.60;;;1.00;;
55732;SDS011;41637;52.364;9.910;2023-08-01T12:58:34;2.90;;;1.20;;
55732;SDS011;41637;52.364;9.910;2023-08-01T13:01:02;4.00;;;1.30;;
55732;SDS011;41637;52.364;9.910;2023-08-01T13:03:30;3.40;;;1.20;;
55732;SDS011;41637;52.364;9.910;2023-08-01T13:05:57;3.30;;;1.20;;
55732;SDS011;41637;52.364;9.910;2023-08-01T13:08:25;3.60;;;1.40;;
55732;SDS011;41637;52.364;9.910;2023-08-01T13:10:52;2.70;;;1.20;;
55732;SDS011;41637;52.364;9.910;2023-08-01T13:13:19;2.50;;;1.30;;
55732;SDS011;41637;52.364;9.910;2023-08-01T13:15:46;2.50;;;1.20;;
55732;SDS011;41637;52.364;9.910;2023-08-01T13:18:13;5.40;;;1.90;;
55732;SDS011;41637;52.364;9.910;2023-08-01T13:20:40;2.70;;;1.30;;
55732;SDS011;41637;52.364;9.910;2023-08-01T13:23:07;2.70;;;1.50;;
55732;SDS011;41637;52.364;9.910;2023-08-01T13:25:34;2.80;;;1.40;;
55732;SDS011;41637;52.364;9.910;2023-08-01T13:28:02;4.40;;;1.50;;
55732;SDS011;41637;52.364;9.910;2023-08-01T13:30:29;3.90;;;1.40;;
55732;SDS011;41637;52.364;9.910;2023-08-01T13:32:55;3.40;;;1.50;;
55732;SDS011;41637;52.364;9.910;2023-08-01T13:35:22;2.50;;;1.40;;
55732;SDS011;41637;52.364;9.910;2023-08-01T13:37:49;3.80;;;1.40;;
55732;SDS011;41637;52.364;9.910;2023-08-01T13:40:16;2.70;;;1.30;;
55732;SDS011;41637;52.364;9.910;2023-08-01T13:42:43;3.00;;;1.20;;
55732;SDS011;41637;52.364;9.910;2023-08-01T13:45:10;2.70;;;1.00;;
55732;SDS011;41637;52.364;9.910;2023-08-01T13:47:36;3.40;;;0.90;;
55732;SDS011;41637;52.364;9.910;2023-08-01T13:50:03;2.50;;;0.90;;
55732;SDS011;41637;52.364;9.910;2023-08-01T13:52:31;2.90;;;1.00;;
55732;SDS011;41637;52.364;9.910;2023-08-01T13:54:58;2.80;;;1.20;;
55732;SDS011;41637;52.364;9.910;2023-08-01T13:57:25;3.20;;;1.30;;
55732;SDS011;41637;52.364;9.910;2023-08-01T13:59:52;3.00;;;1.50;;
55732;SDS011;41637;52.364;9.910;2023-08-01T14:02:35;3.20;;;1.60;;
55732;SDS011;41637;52.364;9.910;2023-08-01T14:05:02;3.70;;;1.80;;
55732;SDS011;41637;52.364;9.910;2023-08-01T14:07:30;5.60;;;1.70;;
55732;SDS011;41637;52.364;9.910;2023-08-01T14:09:56;3.80;;;1.40;;
55732;SDS011;41637;52.364;9.910;2023-08-01T14:12:23;3.40;;;1.40;;
55732;SDS011;41637;52.364;9.910;2023-08-01T14:14:50;2.30;;;1.10;;
55732;SDS011;41637;52.364;9.910;2023-08-01T14:17:17;2.30;;;1.00;;
55732;SDS011;41637;52.364;9.910;2023-08-01T14:19:44;2.40;;;0.90;;
55732;SDS011;41637;52.364;9.910;2023-08-01T14:22:12;2.60;;;1.00;;
55732;SDS011;41637;52.364;9.910;2023-08-01T14:24:39;3.70;;;1.10;;
55732;SDS011;41637;52.364;9.910;2023-08-01T14:27:06;1.90;;;0.80;;
55732;SDS011;41637;52.364;9.910;2023-08-01T14:29:32;3.00;;;0.90;;
55732;SDS011;41637;52.364;9.910;2023-08-01T14:31:59;2.60;;;0.70;;
55732;SDS011;41637;52.364;9.910;2023-08-01T14:34:26;2.80;;;0.90;;
55732;SDS011;41637;52.364;9.910;2023-08-01T14:36:54;3.10;;;0.90;;
55732;SDS011;41637;52.364;9.910;2023-08-01T14:39:20;2.70;;;0.90;;
55732;SDS011;41637;52.364;9.910;2023-08-01T14:41:49;2.20;;;0.80;;
55732;SDS011;41637;52.364;9.910;2023-08-01T14:44:19;1.80;;;0.70;;
55732;SDS011;41637;52.364;9.910;2023-08-01T14:46:46;2.40;;;0.60;;
55732;SDS011;41637;52.364;9.910;2023-08-01T14:49:13;1.10;;;0.40;;
55732;SDS011;41637;52.364;9.910;2023-08-01T14:51:40;1.70;;;0.50;;
55732;SDS011;41637;52.364;9.910;2023-08-01T14:54:08;3.10;;;0.60;;
55732;SDS011;41637;52.364;9.910;2023-08-01T14:56:34;1.60;;;0.60;;
55732;SDS011;41637;52.364;9.910;2023-08-01T14:59:02;2.00;;;0.60;;
55732;SDS011;41637;52.364;9.910;2023-08-01T15:01:29;1.70;;;0.50;;